Horn Island — WDH5949 — position and weather

sailwx.info

Track history (hours):
 
Tides and Currents Weather Stations Pressure Air Temp Water Temp Dewpoint Dewpoint Depression Visibility Wind Speed Wind Dir Waves Ship Positions

Horn Island

Owner: Higman Barge Lines., Inc, Orange, TX. More information available from US FCC via Universal Licensing System and Coast Guard Vessel Documentation Center.

Last reported at 2018-May-23 21:33 UTC. Time now 2018-May-24 00:18 UTC.
Position N 29°46' W 095°05'.

Length 24 m; draft 3 m.

Type: . MMSI: 367633090.

Date/timePositionNaut miles runAvg speedWind from/ knotsBaromVisibWave heightAir tempDewpointWater temp
2018-May-23 21:33N 29°46' W 095°05'0 0.0
2018-May-23 21:30N 29°46' W 095°05'0 0.0
2018-May-23 20:48N 29°46' W 095°05'0 0.0
2018-May-23 20:27N 29°46' W 095°05'0 0.3
2018-May-23 19:59N 29°46' W 095°05'0 0.0
2018-May-22 13:36N 29°46' W 095°05'0 3.7
2018-May-22 13:30N 29°46' W 095°05'0 0.0
2018-May-22 12:58N 29°46' W 095°05'0 0.0
2018-May-22 12:29N 29°46' W 095°05'0 0.0
2018-May-22 11:55N 29°46' W 095°05'0 0.0
2018-May-22 11:29N 29°46' W 095°05'0 0.0
2018-May-22 10:54N 29°46' W 095°05'0 0.0
2018-May-22 07:58N 29°46' W 095°05'0 0.0
2018-May-22 07:24N 29°46' W 095°05'0 0.0
2018-May-22 06:59N 29°46' W 095°05'0 0.0
2018-May-22 06:19N 29°46' W 095°05'0 0.0
2018-May-22 06:00N 29°46' W 095°05'0 0.0
2018-May-22 05:28N 29°46' W 095°05'0 0.0
2018-May-22 04:46N 29°46' W 095°05'0 0.0
2018-May-22 04:27N 29°46' W 095°05'0 0.0
2018-May-22 04:00N 29°46' W 095°05'0 0.0
2018-May-22 03:21N 29°46' W 095°05'0 0.0
2018-May-22 02:45N 29°46' W 095°05'0 0.0
2018-May-22 02:10N 29°46' W 095°05'0 0.0
2018-May-22 02:00N 29°46' W 095°05'0 0.0
2018-May-22 01:22N 29°46' W 095°05'0 0.0
2018-May-22 01:00N 29°46' W 095°05'0 0.0
2018-May-21 13:33N 29°46' W 095°05'0 0.0
2018-May-21 13:27N 29°46' W 095°05'0 0.0
2018-May-21 05:27N 29°46' W 095°05'0 0.0
2018-May-21 04:56N 29°46' W 095°05'0 0.0
2018-May-21 04:07N 29°46' W 095°05'0 0.0
2018-May-21 03:55N 29°46' W 095°05'0 0.0
2018-May-21 03:30N 29°46' W 095°05'0 0.0
2018-May-21 03:00N 29°46' W 095°05'0 0.1
2018-May-20 22:05N 29°46' W 095°05'1 6.0
2018-May-20 21:52N 29°45' W 095°04'3 6.6
2018-May-20 21:25N 29°43' W 095°01'3 7.0
2018-May-20 21:00N 29°41' W 094°59'4 7.8
2018-May-20 20:30N 29°37' W 094°57'4 7.7
2018-May-20 20:00N 29°34' W 094°55'6 8.3
2018-May-20 19:20N 29°29' W 094°52'4 8.7
2018-May-20 18:51N 29°25' W 094°50'3 9.3
2018-May-20 18:30N 29°22' W 094°48'1 1.7
2018-May-20 17:59N 29°23' W 094°49'1 1.3
2018-May-20 17:30N 29°24' W 094°49'2 4.8
2018-May-20 17:00N 29°21' W 094°49'1 3.0
2018-May-20 16:30N 29°20' W 094°50'3 6.4
2018-May-20 16:00N 29°18' W 094°53'2 3.3
2018-May-20 15:30N 29°17' W 094°54'2 4.8
2018-May-20 15:00N 29°17' W 094°57'2 4.6
2018-May-20 14:30N 29°16' W 094°59'3 5.0
2018-May-20 14:00N 29°14' W 095°01'2 4.8
2018-May-20 13:30N 29°12' W 095°03'3 5.5
2018-May-20 13:00N 29°11' W 095°05'2 4.8
2018-May-20 12:30N 29°10' W 095°08'3 5.4
2018-May-20 12:00N 29°08' W 095°10'2 4.8
2018-May-20 11:30N 29°06' W 095°12'2 4.4
2018-May-20 11:00N 29°04' W 095°13'2 4.1
2018-May-20 10:30N 29°02' W 095°14'2 4.2
2018-May-20 10:00N 29°00' W 095°15'3 4.3
2018-May-20 09:24N 28°58' W 095°17'135 2.7
2018-May-18 06:43N 27°49' W 097°29'0 0.0
2018-May-18 06:25N 27°49' W 097°29'0 0.0
2018-May-18 05:49N 27°49' W 097°29'0 0.0
2018-May-18 05:28N 27°49' W 097°29'0 0.0
2018-May-18 04:25N 27°49' W 097°29'0 0.0
2018-May-18 03:58N 27°49' W 097°29'0 0.0
2018-May-18 03:22N 27°49' W 097°29'0 0.0
2018-May-16 11:47N 27°49' W 097°29'0 0.0
2018-May-16 11:02N 27°49' W 097°29'0 0.0
2018-May-16 10:59N 27°49' W 097°29'0 0.0
2018-May-16 10:22N 27°49' W 097°29'0 0.0
2018-May-16 09:59N 27°49' W 097°29'0 0.0
2018-May-16 09:24N 27°49' W 097°29'0 0.0
2018-May-16 08:58N 27°49' W 097°29'0 0.0
2018-May-16 05:37N 27°49' W 097°29'0 0.2
2018-May-16 05:30N 27°49' W 097°29'  
Track history (hours):
 
Tides and Currents Weather Stations Pressure Air Temp Water Temp Dewpoint Dewpoint Depression Visibility Wind Speed Wind Dir Waves Ship Positions

Horn Island

Owner: Higman Barge Lines., Inc, Orange, TX. More information available from US FCC via Universal Licensing System and Coast Guard Vessel Documentation Center.

Last reported at 2018-May-23 21:33 UTC. Time now 2018-May-24 00:18 UTC.
Position N 29°46' W 095°05'.

Length 24 m; draft 3 m.

Type: . MMSI: 367633090.

Date/timePositionNaut miles runAvg speedWind from/ knotsBaromVisibWave heightAir tempDewpointWater temp
2018-May-23 21:33N 29°46' W 095°05'0 0.0
2018-May-23 21:30N 29°46' W 095°05'0 0.0
2018-May-23 20:48N 29°46' W 095°05'0 0.0
2018-May-23 20:27N 29°46' W 095°05'0 0.3
2018-May-23 19:59N 29°46' W 095°05'0 0.0
2018-May-22 13:36N 29°46' W 095°05'0 3.7
2018-May-22 13:30N 29°46' W 095°05'0 0.0
2018-May-22 12:58N 29°46' W 095°05'0 0.0
2018-May-22 12:29N 29°46' W 095°05'0 0.0
2018-May-22 11:55N 29°46' W 095°05'0 0.0
2018-May-22 11:29N 29°46' W 095°05'0 0.0
2018-May-22 10:54N 29°46' W 095°05'0 0.0
2018-May-22 07:58N 29°46' W 095°05'0 0.0
2018-May-22 07:24N 29°46' W 095°05'0 0.0
2018-May-22 06:59N 29°46' W 095°05'0 0.0
2018-May-22 06:19N 29°46' W 095°05'0 0.0
2018-May-22 06:00N 29°46' W 095°05'0 0.0
2018-May-22 05:28N 29°46' W 095°05'0 0.0
2018-May-22 04:46N 29°46' W 095°05'0 0.0
2018-May-22 04:27N 29°46' W 095°05'0 0.0
2018-May-22 04:00N 29°46' W 095°05'0 0.0
2018-May-22 03:21N 29°46' W 095°05'0 0.0
2018-May-22 02:45N 29°46' W 095°05'0 0.0
2018-May-22 02:10N 29°46' W 095°05'0 0.0
2018-May-22 02:00N 29°46' W 095°05'0 0.0
2018-May-22 01:22N 29°46' W 095°05'0 0.0
2018-May-22 01:00N 29°46' W 095°05'0 0.0
2018-May-21 13:33N 29°46' W 095°05'0 0.0
2018-May-21 13:27N 29°46' W 095°05'0 0.0
2018-May-21 05:27N 29°46' W 095°05'0 0.0
2018-May-21 04:56N 29°46' W 095°05'0 0.0
2018-May-21 04:07N 29°46' W 095°05'0 0.0
2018-May-21 03:55N 29°46' W 095°05'0 0.0
2018-May-21 03:30N 29°46' W 095°05'0 0.0
2018-May-21 03:00N 29°46' W 095°05'0 0.1
2018-May-20 22:05N 29°46' W 095°05'1 6.0
2018-May-20 21:52N 29°45' W 095°04'3 6.6
2018-May-20 21:25N 29°43' W 095°01'3 7.0
2018-May-20 21:00N 29°41' W 094°59'4 7.8
2018-May-20 20:30N 29°37' W 094°57'4 7.7
2018-May-20 20:00N 29°34' W 094°55'6 8.3
2018-May-20 19:20N 29°29' W 094°52'4 8.7
2018-May-20 18:51N 29°25' W 094°50'3 9.3
2018-May-20 18:30N 29°22' W 094°48'1 1.7
2018-May-20 17:59N 29°23' W 094°49'1 1.3
2018-May-20 17:30N 29°24' W 094°49'2 4.8
2018-May-20 17:00N 29°21' W 094°49'1 3.0
2018-May-20 16:30N 29°20' W 094°50'3 6.4
2018-May-20 16:00N 29°18' W 094°53'2 3.3
2018-May-20 15:30N 29°17' W 094°54'2 4.8
2018-May-20 15:00N 29°17' W 094°57'2 4.6
2018-May-20 14:30N 29°16' W 094°59'3 5.0
2018-May-20 14:00N 29°14' W 095°01'2 4.8
2018-May-20 13:30N 29°12' W 095°03'3 5.5
2018-May-20 13:00N 29°11' W 095°05'2 4.8
2018-May-20 12:30N 29°10' W 095°08'3 5.4
2018-May-20 12:00N 29°08' W 095°10'2 4.8
2018-May-20 11:30N 29°06' W 095°12'2 4.4
2018-May-20 11:00N 29°04' W 095°13'2 4.1
2018-May-20 10:30N 29°02' W 095°14'2 4.2
2018-May-20 10:00N 29°00' W 095°15'3 4.3
2018-May-20 09:24N 28°58' W 095°17'135 2.7
2018-May-18 06:43N 27°49' W 097°29'0 0.0
2018-May-18 06:25N 27°49' W 097°29'0 0.0
2018-May-18 05:49N 27°49' W 097°29'0 0.0
2018-May-18 05:28N 27°49' W 097°29'0 0.0
2018-May-18 04:25N 27°49' W 097°29'0 0.0
2018-May-18 03:58N 27°49' W 097°29'0 0.0
2018-May-18 03:22N 27°49' W 097°29'0 0.0
2018-May-16 11:47N 27°49' W 097°29'0 0.0
2018-May-16 11:02N 27°49' W 097°29'0 0.0
2018-May-16 10:59N 27°49' W 097°29'0 0.0
2018-May-16 10:22N 27°49' W 097°29'0 0.0
2018-May-16 09:59N 27°49' W 097°29'0 0.0
2018-May-16 09:24N 27°49' W 097°29'0 0.0
2018-May-16 08:58N 27°49' W 097°29'0 0.0
2018-May-16 05:37N 27°49' W 097°29'0 0.2
2018-May-16 05:30N 27°49' W 097°29'  

Dump ship's entire track history